Time;durP1;ratioP1;P1;durP2;ratioP2;P2;SDS_P1;SDS_P2;PMS_P1;PMS_P2;Temp;Humidity;BMP_temperature;BMP_pressure;BME280_temperature;BME280_humidity;BME280_pressure;Samples;Min_cycle;Max_cycle;Signal;HPM_P1;HPM_P2
2023/08/27 00:00:43;;;;;;;23.27;22.47;;;19.20;99.90;;;;;;5033938;28;20693;-54
2023/08/27 00:03:10;;;;;;;21.17;20.47;;;19.20;99.90;;;;;;5050604;28;20271;-55
2023/08/27 00:05:42;;;;;;;21.67;20.93;;;19.20;99.90;;;;;;5031421;28;20205;-56
2023/08/27 00:08:09;;;;;;;29.23;28.13;;;19.10;99.90;;;;;;5030246;28;20212;-55
2023/08/27 00:10:35;;;;;;;31.10;29.97;;;19.20;99.90;;;;;;5032386;28;20220;-56
2023/08/27 00:13:04;;;;;;;22.90;22.00;;;19.20;99.90;;;;;;5036701;28;20920;-56
2023/08/27 00:15:30;;;;;;;33.73;32.53;;;19.10;99.90;;;;;;5031419;28;20211;-56
2023/08/27 00:17:57;;;;;;;28.00;27.00;;;19.00;99.90;;;;;;5030962;28;20702;-57
2023/08/27 00:20:24;;;;;;;30.53;29.43;;;19.00;99.90;;;;;;5037414;28;20204;-56
2023/08/27 00:22:51;;;;;;;29.30;28.20;;;19.00;99.90;;;;;;5034511;28;20227;-57
2023/08/27 00:25:18;;;;;;;24.97;24.07;;;18.90;99.90;;;;;;5034304;28;20212;-57
2023/08/27 00:27:45;;;;;;;22.85;22.05;;;18.90;99.90;;;;;;5034257;28;20256;-57
2023/08/27 00:30:13;;;;;;;22.17;21.37;;;18.90;99.90;;;;;;5036927;28;20223;-55
2023/08/27 00:32:41;;;;;;;22.23;21.43;;;18.90;99.90;;;;;;5043671;28;20287;-56
2023/08/27 00:35:08;;;;;;;24.95;24.05;;;18.90;99.90;;;;;;5039783;28;20232;-55
2023/08/27 00:37:35;;;;;;;24.23;23.40;;;18.90;99.90;;;;;;5035147;28;20244;-56
2023/08/27 00:40:03;;;;;;;26.73;25.83;;;18.90;99.90;;;;;;5034143;28;20208;-56
2023/08/27 00:42:30;;;;;;;22.23;21.43;;;18.90;99.90;;;;;;5034525;28;20703;-55
2023/08/27 00:44:57;;;;;;;23.70;22.80;;;18.90;99.90;;;;;;5034589;28;20291;-55
2023/08/27 00:47:26;;;;;;;26.50;25.50;;;18.90;99.90;;;;;;5034580;28;20324;-57
2023/08/27 00:49:52;;;;;;;18.37;17.67;;;18.90;99.90;;;;;;5032959;28;20244;-55
2023/08/27 00:52:21;;;;;;;24.63;23.73;;;18.90;99.90;;;;;;5033576;28;20201;-56
2023/08/27 00:54:49;;;;;;;23.63;22.80;;;18.80;99.90;;;;;;5032968;28;20295;-56
2023/08/27 00:57:16;;;;;;;25.50;24.60;;;18.80;99.90;;;;;;5033088;28;20239;-56
2023/08/27 00:59:43;;;;;;;25.20;24.30;;;18.80;99.90;;;;;;5032377;28;20615;-56
2023/08/27 01:02:11;;;;;;;24.87;23.93;;;18.80;99.90;;;;;;5036413;28;20228;-57
2023/08/27 01:04:39;;;;;;;22.77;21.97;;;18.80;99.90;;;;;;5039626;28;20307;-54
2023/08/27 01:07:12;;;;;;;23.77;22.88;;;18.80;99.90;;;;;;5039355;28;20232;-55
2023/08/27 01:09:45;;;;;;;28.43;27.33;;;18.70;99.90;;;;;;5033604;28;20670;-55
2023/08/27 01:12:21;;;;;;;27.30;26.30;;;18.70;99.90;;;;;;5032811;28;20195;-55
2023/08/27 01:14:50;;;;;;;24.50;23.60;;;18.80;99.90;;;;;;5033035;28;20200;-56
2023/08/27 01:17:21;;;;;;;27.80;26.70;;;18.80;99.90;;;;;;5032914;28;20227;-56
2023/08/27 01:19:49;;;;;;;23.50;22.70;;;18.70;99.90;;;;;;5030095;28;20200;-55
2023/08/27 01:22:18;;;;;;;25.90;24.97;;;18.60;99.90;;;;;;5029291;28;20235;-57
2023/08/27 01:24:44;;;;;;;25.93;25.03;;;18.70;99.90;;;;;;5032961;28;20215;-57
2023/08/27 01:27:15;;;;;;;24.90;24.00;;;18.70;99.90;;;;;;5032514;28;20228;-56
2023/08/27 01:29:46;;;;;;;20.53;19.80;;;18.70;99.90;;;;;;5031739;28;20322;-56
2023/08/27 01:32:20;;;;;;;24.80;23.90;;;18.60;99.90;;;;;;5031915;28;20200;-56
2023/08/27 01:34:48;;;;;;;23.40;22.53;;;18.50;99.90;;;;;;5032488;28;20197;-57
2023/08/27 01:37:16;;;;;;;24.53;23.60;;;18.50;99.90;;;;;;5032002;28;20232;-54
2023/08/27 01:39:43;;;;;;;23.57;22.73;;;18.50;99.90;;;;;;5031526;28;20204;-55
2023/08/27 01:42:10;;;;;;;24.13;23.23;;;18.50;99.90;;;;;;5032434;28;20225;-57
2023/08/27 01:44:37;;;;;;;24.43;23.53;;;18.60;99.90;;;;;;5032646;28;20276;-57
2023/08/27 01:47:05;;;;;;;32.10;31.00;;;18.60;99.90;;;;;;5032260;28;20232;-55
2023/08/27 01:49:32;;;;;;;26.20;25.30;;;18.90;99.90;;;;;;5030928;28;20303;-56
2023/08/27 01:51:58;;;;;;;26.70;25.70;;;19.00;99.90;;;;;;5031912;28;20212;-55
2023/08/27 01:54:27;;;;;;;27.27;26.27;;;19.10;99.90;;;;;;5032852;28;20228;-57
2023/08/27 01:56:53;;;;;;;39.77;38.33;;;19.10;99.90;;;;;;5032957;28;20315;-55
2023/08/27 01:59:20;;;;;;;23.53;22.63;;;19.50;99.90;;;;;;5032251;28;20204;-56
2023/08/27 02:01:47;;;;;;;23.00;22.20;;;19.70;99.90;;;;;;5032917;28;20224;-55
2023/08/27 02:04:14;;;;;;;21.53;20.73;;;19.50;99.90;;;;;;5036777;28;20559;-55
2023/08/27 02:06:41;;;;;;;20.67;19.87;;;19.40;99.90;;;;;;5034218;28;20235;-55
2023/08/27 02:09:08;;;;;;;21.87;21.07;;;19.20;99.90;;;;;;5035127;28;20215;-55
2023/08/27 02:11:36;;;;;;;22.37;21.57;;;19.10;99.90;;;;;;5032640;28;20205;-55
2023/08/27 02:14:03;;;;;;;22.93;22.13;;;19.00;99.90;;;;;;5033457;28;20670;-56
2023/08/27 02:16:30;;;;;;;20.80;20.10;;;19.00;99.90;;;;;;5031544;28;20224;-55
2023/08/27 02:18:57;;;;;;;20.60;19.83;;;18.90;99.90;;;;;;5032207;28;20208;-54
2023/08/27 02:21:24;;;;;;;22.58;21.75;;;19.00;99.90;;;;;;5033636;28;20201;-55
2023/08/27 02:23:51;;;;;;;22.63;21.83;;;18.80;99.90;;;;;;5031653;28;20212;-55
2023/08/27 02:26:18;;;;;;;23.20;22.40;;;18.70;99.90;;;;;;5031270;28;20231;-57
2023/08/27 02:28:46;;;;;;;29.17;28.17;;;18.80;99.90;;;;;;5031273;28;20205;-58
2023/08/27 02:31:14;;;;;;;23.00;22.20;;;19.00;99.90;;;;;;5030681;28;20640;-56
2023/08/27 02:33:41;;;;;;;26.57;25.63;;;19.10;99.90;;;;;;5031066;28;20295;-56
2023/08/27 02:36:07;;;;;;;25.33;24.38;;;19.10;99.90;;;;;;5030740;28;20673;-54
2023/08/27 02:38:34;;;;;;;27.37;26.37;;;19.10;99.90;;;;;;5031441;28;20212;-55
2023/08/27 02:41:01;;;;;;;22.47;21.67;;;19.00;99.90;;;;;;5031173;28;20201;-56
2023/08/27 02:43:28;;;;;;;22.77;21.90;;;18.90;99.90;;;;;;5035182;28;20307;-56
2023/08/27 02:45:56;;;;;;;24.57;23.57;;;18.80;99.90;;;;;;5038945;28;20209;-57
2023/08/27 02:48:23;;;;;;;27.97;26.97;;;18.70;99.90;;;;;;5031874;28;20227;-56
2023/08/27 02:50:49;;;;;;;25.83;24.93;;;18.80;99.90;;;;;;5030770;28;20208;-56
2023/08/27 02:53:16;;;;;;;25.70;24.80;;;18.80;99.90;;;;;;5031032;28;20215;-55
2023/08/27 02:55:43;;;;;;;23.57;22.70;;;18.70;99.90;;;;;;5030718;28;20212;-57
2023/08/27 02:58:10;;;;;;;24.47;23.47;;;18.70;99.90;;;;;;5030548;28;20211;-56
2023/08/27 03:00:40;;;;;;;20.67;19.97;;;18.60;99.90;;;;;;5030166;28;20555;-56
2023/08/27 03:03:08;;;;;;;19.60;18.90;;;18.60;99.90;;;;;;5030412;28;20216;-56
2023/08/27 03:05:35;;;;;;;23.37;22.37;;;18.60;99.90;;;;;;5030796;28;20231;-58
2023/08/27 03:08:02;;;;;;;23.00;22.17;;;18.60;99.90;;;;;;5030693;28;20572;-57
2023/08/27 03:10:29;;;;;;;22.17;21.37;;;18.60;99.90;;;;;;5030111;28;20972;-54
2023/08/27 03:12:56;;;;;;;24.10;23.27;;;18.60;99.90;;;;;;5030597;28;20211;-56
2023/08/27 03:15:22;;;;;;;22.73;21.93;;;18.70;99.90;;;;;;5029237;28;20724;-56
2023/08/27 03:17:49;;;;;;;18.90;18.20;;;18.70;99.90;;;;;;5031404;28;20230;-55
2023/08/27 03:20:17;;;;;;;18.67;18.03;;;18.70;99.90;;;;;;5030381;28;20688;-55
2023/08/27 03:22:44;;;;;;;19.87;19.17;;;18.60;99.90;;;;;;5031415;28;20224;-56
2023/08/27 03:25:11;;;;;;;20.03;19.33;;;18.60;99.90;;;;;;5031286;28;20211;-57
2023/08/27 03:27:38;;;;;;;18.50;17.80;;;18.40;99.90;;;;;;5031259;28;20718;-57
2023/08/27 03:30:05;;;;;;;16.50;15.90;;;18.60;99.90;;;;;;5030506;28;20213;-56
2023/08/27 03:32:32;;;;;;;19.52;18.83;;;18.60;99.90;;;;;;5031070;28;20207;-57
2023/08/27 03:34:59;;;;;;;17.70;17.10;;;18.60;99.90;;;;;;5031058;28;20208;-55
2023/08/27 03:37:27;;;;;;;17.97;17.37;;;18.50;99.90;;;;;;5057813;22;20227;-60
2023/08/27 03:39:54;;;;;;;25.05;24.13;;;18.60;99.90;;;;;;5069534;28;20215;-58
2023/08/27 03:42:21;;;;;;;21.93;21.13;;;18.90;99.90;;;;;;5074321;28;20719;-59
2023/08/27 03:44:47;;;;;;;19.67;18.98;;;19.00;99.90;;;;;;5071891;28;20207;-60
2023/08/27 03:47:14;;;;;;;20.27;19.57;;;18.90;99.90;;;;;;5071811;28;20223;-56
2023/08/27 03:49:41;;;;;;;17.23;16.63;;;18.70;99.90;;;;;;5032341;28;20235;-60
2023/08/27 03:52:08;;;;;;;17.83;17.23;;;18.60;99.90;;;;;;5033082;28;20201;-59
2023/08/27 03:54:36;;;;;;;19.57;18.87;;;18.50;99.90;;;;;;5033625;28;20291;-61
2023/08/27 03:57:03;;;;;;;22.53;21.73;;;18.50;99.90;;;;;;5035853;28;20296;-58
2023/08/27 03:59:30;;;;;;;19.40;18.70;;;18.50;99.90;;;;;;5034194;28;20662;-59
2023/08/27 04:01:57;;;;;;;18.30;17.70;;;18.40;99.90;;;;;;5033282;28;20208;-59
2023/08/27 04:04:23;;;;;;;18.60;17.90;;;18.40;99.90;;;;;;5032080;28;20227;-60
2023/08/27 04:06:51;;;;;;;17.57;16.97;;;18.40;99.90;;;;;;5031822;28;20252;-58
2023/08/27 04:09:17;;;;;;;18.00;17.40;;;18.40;99.90;;;;;;5031020;28;20204;-58
2023/08/27 04:11:45;;;;;;;18.87;18.17;;;18.40;99.90;;;;;;5032401;28;20299;-59
2023/08/27 04:14:12;;;;;;;18.57;17.97;;;18.40;99.90;;;;;;5032019;28;20211;-60
2023/08/27 04:16:39;;;;;;;18.00;17.40;;;18.30;99.90;;;;;;5033989;28;20212;-56
2023/08/27 04:19:06;;;;;;;19.02;18.33;;;18.20;99.90;;;;;;5031603;28;20201;-60
2023/08/27 04:21:33;;;;;;;18.52;17.88;;;18.30;99.90;;;;;;5032503;28;20208;-58
2023/08/27 04:23:59;;;;;;;17.87;17.27;;;18.30;99.90;;;;;;5032770;28;20235;-57
2023/08/27 04:26:26;;;;;;;17.60;17.00;;;18.30;99.90;;;;;;5032647;28;20209;-60
2023/08/27 04:28:55;;;;;;;16.60;16.00;;;18.20;99.90;;;;;;5032400;28;20214;-59
2023/08/27 04:31:22;;;;;;;18.20;17.60;;;18.20;99.90;;;;;;5031458;28;20212;-59
2023/08/27 04:33:48;;;;;;;17.77;17.13;;;18.20;99.90;;;;;;5032748;28;20232;-60
2023/08/27 04:36:15;;;;;;;17.30;16.70;;;18.20;99.90;;;;;;5032525;28;20215;-59
2023/08/27 04:38:42;;;;;;;17.00;16.37;;;18.30;99.90;;;;;;5032383;28;20258;-58
2023/08/27 04:41:09;;;;;;;19.10;18.40;;;18.40;99.90;;;;;;5033062;28;20208;-58
2023/08/27 04:43:36;;;;;;;17.60;17.00;;;18.60;99.90;;;;;;5033360;28;20243;-59
2023/08/27 04:46:04;;;;;;;18.20;17.50;;;18.60;99.90;;;;;;5033783;28;20208;-58
2023/08/27 04:48:31;;;;;;;17.37;16.77;;;18.60;99.90;;;;;;5032979;28;20229;-60
2023/08/27 04:50:58;;;;;;;18.83;18.13;;;18.60;99.90;;;;;;5030066;28;20240;-59
2023/08/27 04:53:26;;;;;;;18.57;17.77;;;18.70;99.90;;;;;;5030641;28;20616;-59
2023/08/27 04:55:53;;;;;;;16.83;16.23;;;18.80;99.90;;;;;;5030251;28;20737;-59
2023/08/27 04:58:20;;;;;;;18.03;17.43;;;18.80;99.90;;;;;;5029181;28;20235;-58
2023/08/27 05:00:47;;;;;;;17.23;16.63;;;18.70;99.90;;;;;;5028561;28;20215;-58
2023/08/27 05:03:16;;;;;;;17.80;17.20;;;18.70;99.90;;;;;;5029137;28;20224;-58
2023/08/27 05:05:42;;;;;;;17.90;17.30;;;18.70;99.90;;;;;;5029831;28;20205;-57
2023/08/27 05:08:09;;;;;;;15.93;15.37;;;18.60;99.90;;;;;;5032509;28;20229;-58
2023/08/27 05:10:36;;;;;;;17.73;17.13;;;18.60;99.90;;;;;;5032217;28;20208;-59
2023/08/27 05:13:03;;;;;;;17.03;16.43;;;18.60;99.90;;;;;;5032660;28;20216;-59
2023/08/27 05:15:30;;;;;;;17.88;17.27;;;18.50;99.90;;;;;;5033957;28;20331;-58
2023/08/27 05:17:58;;;;;;;17.55;16.95;;;18.50;99.90;;;;;;5032890;28;20228;-58
2023/08/27 05:20:26;;;;;;;17.13;16.53;;;18.50;99.90;;;;;;5032400;28;20211;-60
2023/08/27 05:22:53;;;;;;;20.08;19.27;;;18.40;99.90;;;;;;5032373;28;20268;-58
2023/08/27 05:25:20;;;;;;;17.53;16.83;;;18.50;99.90;;;;;;5033019;28;20258;-59
2023/08/27 05:27:47;;;;;;;18.33;17.70;;;18.70;99.90;;;;;;5032393;28;20220;-59
2023/08/27 05:30:14;;;;;;;19.27;18.57;;;18.80;99.90;;;;;;5031724;28;20229;-59
2023/08/27 05:32:41;;;;;;;18.93;18.13;;;18.70;99.90;;;;;;5032345;28;20201;-57
2023/08/27 05:35:08;;;;;;;17.70;17.07;;;18.80;99.90;;;;;;5032808;28;20584;-59
2023/08/27 05:37:37;;;;;;;17.37;16.77;;;18.80;99.90;;;;;;5032688;28;20236;-59
2023/08/27 05:40:05;;;;;;;18.77;18.07;;;18.80;99.90;;;;;;5031766;28;20858;-59
2023/08/27 05:42:32;;;;;;;19.40;18.70;;;18.80;99.90;;;;;;5032332;28;20208;-61
2023/08/27 05:44:59;;;;;;;18.90;18.20;;;18.80;99.90;;;;;;5034199;28;20213;-59
2023/08/27 05:47:27;;;;;;;18.07;17.47;;;18.80;99.90;;;;;;5040526;28;20298;-59
2023/08/27 05:49:54;;;;;;;18.40;17.70;;;18.80;99.90;;;;;;5052469;28;20211;-58
2023/08/27 05:52:21;;;;;;;17.63;17.03;;;18.80;99.90;;;;;;5054555;28;20208;-59
2023/08/27 05:54:49;;;;;;;17.60;16.93;;;18.80;99.90;;;;;;5054756;28;20200;-59
2023/08/27 05:57:16;;;;;;;16.97;16.37;;;18.90;99.90;;;;;;5053485;28;20224;-59
2023/08/27 05:59:43;;;;;;;19.07;18.37;;;18.90;99.90;;;;;;5052660;28;20670;-59
2023/08/27 06:02:10;;;;;;;17.80;17.17;;;18.90;99.90;;;;;;5053193;28;20208;-60
2023/08/27 06:04:37;;;;;;;17.17;16.57;;;19.00;99.90;;;;;;5053384;28;20698;-59
2023/08/27 06:07:04;;;;;;;17.77;17.07;;;19.00;99.90;;;;;;5052540;28;20235;-59
2023/08/27 06:09:30;;;;;;;21.23;20.38;;;19.00;99.90;;;;;;5051485;28;20215;-59
2023/08/27 06:11:59;;;;;;;17.57;16.93;;;19.00;99.90;;;;;;5052375;28;20666;-59
2023/08/27 06:14:26;;;;;;;19.73;19.03;;;19.00;99.90;;;;;;5052369;28;20200;-59
2023/08/27 06:16:53;;;;;;;22.47;21.67;;;19.20;99.90;;;;;;5052301;28;20565;-59
2023/08/27 06:19:19;;;;;;;20.30;19.60;;;19.10;99.90;;;;;;5051600;28;20204;-59
2023/08/27 06:21:46;;;;;;;16.98;16.38;;;19.20;99.90;;;;;;5052451;28;20214;-58
2023/08/27 06:24:13;;;;;;;18.07;17.47;;;19.40;99.90;;;;;;5053286;28;20224;-58
2023/08/27 06:26:40;;;;;;;17.97;17.37;;;19.30;99.90;;;;;;5052388;28;20208;-60
2023/08/27 06:29:08;;;;;;;18.10;17.40;;;19.20;99.90;;;;;;5051685;28;20211;-58
2023/08/27 06:31:35;;;;;;;17.07;16.47;;;19.10;99.90;;;;;;5051809;28;20208;-60
2023/08/27 06:34:01;;;;;;;18.23;17.63;;;19.00;99.90;;;;;;5052098;28;20199;-58
2023/08/27 06:36:28;;;;;;;18.90;18.23;;;19.00;99.90;;;;;;5052303;28;20199;-58
2023/08/27 06:38:55;;;;;;;18.40;17.80;;;19.00;99.90;;;;;;5052275;28;20690;-59
2023/08/27 06:41:22;;;;;;;18.13;17.53;;;19.00;99.90;;;;;;5052004;28;20579;-60
2023/08/27 06:43:49;;;;;;;17.50;16.80;;;19.10;99.90;;;;;;5051691;28;20220;-60
2023/08/27 06:46:17;;;;;;;18.03;17.43;;;19.00;99.90;;;;;;5051556;28;20218;-58
2023/08/27 06:48:44;;;;;;;16.80;16.20;;;19.10;99.90;;;;;;5051021;28;20234;-58
2023/08/27 06:51:11;;;;;;;18.37;17.77;;;19.20;99.90;;;;;;5050338;28;20200;-60
2023/08/27 06:53:38;;;;;;;17.23;16.63;;;19.20;99.90;;;;;;5049758;28;20200;-59
2023/08/27 06:56:05;;;;;;;19.40;18.50;;;19.20;99.90;;;;;;5050360;28;20204;-60
2023/08/27 06:58:31;;;;;;;22.70;21.90;;;19.30;99.90;;;;;;5050858;28;20227;-58
2023/08/27 07:00:58;;;;;;;17.97;17.37;;;19.50;99.90;;;;;;5050227;28;20212;-58
2023/08/27 07:03:26;;;;;;;16.30;15.75;;;19.70;99.90;;;;;;5051302;28;20259;-59
2023/08/27 07:05:53;;;;;;;16.10;15.55;;;19.70;99.90;;;;;;5050802;28;20208;-58
2023/08/27 07:08:20;;;;;;;17.27;16.67;;;19.70;99.90;;;;;;5050339;28;20310;-59
2023/08/27 07:10:47;;;;;;;16.83;16.13;;;19.70;99.90;;;;;;5051800;28;20692;-60
2023/08/27 07:13:14;;;;;;;17.20;16.60;;;19.70;99.90;;;;;;5052758;28;20231;-60
2023/08/27 07:15:41;;;;;;;17.47;16.87;;;19.70;99.90;;;;;;5051691;28;20584;-60
2023/08/27 07:18:08;;;;;;;18.95;18.25;;;19.70;99.90;;;;;;5050555;28;20228;-57
2023/08/27 07:20:36;;;;;;;16.60;16.00;;;19.70;99.90;;;;;;5049882;28;20216;-56
2023/08/27 07:23:04;;;;;;;17.87;17.23;;;19.70;99.90;;;;;;5050303;28;20212;-58
2023/08/27 07:25:31;;;;;;;17.20;16.60;;;19.90;99.90;;;;;;5050671;28;20580;-58
2023/08/27 07:27:58;;;;;;;16.15;15.63;;;19.80;99.90;;;;;;5050281;28;20232;-64
2023/08/27 07:30:25;;;;;;;17.87;17.27;;;20.00;99.90;;;;;;5050964;28;20204;-59
2023/08/27 07:32:52;;;;;;;18.50;17.80;;;20.00;99.90;;;;;;5052628;28;20282;-58
2023/08/27 07:35:19;;;;;;;15.30;14.80;;;20.00;99.90;;;;;;5050195;28;20634;-58
2023/08/27 07:37:47;;;;;;;17.40;16.80;;;20.00;99.90;;;;;;5050186;28;20239;-59
2023/08/27 07:40:14;;;;;;;16.83;16.23;;;20.00;99.90;;;;;;5049298;28;20302;-57
2023/08/27 07:42:41;;;;;;;17.73;17.13;;;20.00;99.90;;;;;;5050303;28;20211;-59
2023/08/27 07:45:09;;;;;;;19.40;18.70;;;20.00;99.90;;;;;;5050272;28;20230;-61
2023/08/27 07:47:36;;;;;;;17.50;16.90;;;20.10;99.90;;;;;;5051914;28;20234;-66
2023/08/27 07:50:03;;;;;;;18.93;18.27;;;20.20;99.90;;;;;;5050159;28;20273;-66
2023/08/27 07:52:30;;;;;;;18.67;18.07;;;20.20;99.90;;;;;;5048955;28;20204;-63
2023/08/27 07:54:58;;;;;;;19.13;18.43;;;20.20;99.90;;;;;;5048779;28;20271;-64
2023/08/27 07:57:25;;;;;;;18.00;17.33;;;20.20;99.90;;;;;;5049446;28;20821;-65
2023/08/27 07:59:51;;;;;;;16.98;16.38;;;20.20;99.90;;;;;;5048490;28;20203;-64
2023/08/27 08:02:18;;;;;;;15.60;15.10;;;20.30;99.90;;;;;;5049776;28;20204;-65
2023/08/27 08:04:46;;;;;;;16.37;15.80;;;20.30;99.90;;;;;;5049469;28;20227;-64
2023/08/27 08:07:13;;;;;;;15.10;14.60;;;20.30;99.90;;;;;;5049033;28;20227;-63
2023/08/27 08:09:40;;;;;;;16.25;15.68;;;20.40;99.90;;;;;;5048501;28;20850;-64
2023/08/27 08:12:08;;;;;;;17.93;17.33;;;20.50;99.90;;;;;;5049710;28;20207;-64
2023/08/27 08:14:35;;;;;;;14.87;14.37;;;20.60;99.90;;;;;;5049162;28;20294;-64
2023/08/27 08:17:02;;;;;;;14.77;14.27;;;20.70;99.90;;;;;;5048314;28;20226;-64
2023/08/27 08:19:29;;;;;;;16.10;15.55;;;20.70;99.90;;;;;;5048474;28;20666;-63
2023/08/27 08:21:56;;;;;;;14.75;14.25;;;20.80;99.90;;;;;;5048747;28;20203;-63
2023/08/27 08:24:23;;;;;;;15.15;14.65;;;20.90;99.90;;;;;;5048704;28;20223;-64
2023/08/27 08:26:52;;;;;;;14.82;14.32;;;21.00;99.90;;;;;;5049054;28;20224;-65
2023/08/27 08:29:20;;;;;;;13.38;12.88;;;21.00;99.90;;;;;;5048065;28;20206;-64
2023/08/27 08:31:47;;;;;;;14.38;13.88;;;21.00;99.90;;;;;;5048927;28;20210;-63
2023/08/27 08:34:14;;;;;;;12.98;12.55;;;21.20;99.90;;;;;;5048758;28;20231;-63
2023/08/27 08:36:41;;;;;;;13.77;13.30;;;21.20;99.90;;;;;;5048679;28;20204;-66
2023/08/27 08:39:08;;;;;;;12.70;12.30;;;21.20;99.90;;;;;;5047988;28;20294;-65
2023/08/27 08:41:41;;;;;;;12.70;12.30;;;21.30;99.90;;;;;;5049315;28;20226;-65
2023/08/27 08:44:19;;;;;;;12.02;11.55;;;21.30;99.90;;;;;;5052527;28;20228;-65
2023/08/27 08:46:50;;;;;;;12.98;12.52;;;21.40;99.90;;;;;;5052297;28;20895;-65
2023/08/27 08:49:22;;;;;;;12.60;12.20;;;21.50;99.90;;;;;;5050228;28;20220;-65
2023/08/27 08:51:51;;;;;;;11.83;11.43;;;21.50;99.90;;;;;;5053715;28;20242;-65
2023/08/27 08:54:24;;;;;;;11.57;11.18;;;21.40;99.90;;;;;;5053015;28;20267;-64
2023/08/27 08:56:56;;;;;;;11.55;11.15;;;21.50;99.90;;;;;;5052923;28;20863;-63
2023/08/27 08:59:27;;;;;;;12.80;12.40;;;21.60;99.90;;;;;;5052457;28;20514;-64
2023/08/27 09:01:55;;;;;;;12.50;12.10;;;21.70;99.90;;;;;;5050312;28;20246;-64
2023/08/27 09:04:23;;;;;;;12.50;12.10;;;21.80;99.90;;;;;;5053632;28;20677;-65
2023/08/27 09:06:51;;;;;;;12.38;11.98;;;21.80;99.90;;;;;;5058931;28;20223;-64
2023/08/27 09:09:19;;;;;;;11.95;11.55;;;21.80;99.90;;;;;;5054214;28;20219;-65
2023/08/27 09:11:46;;;;;;;12.68;12.27;;;21.90;99.90;;;;;;5053371;28;20295;-65
2023/08/27 09:14:15;;;;;;;11.80;11.40;;;21.80;99.90;;;;;;5052969;28;20661;-63
2023/08/27 09:16:41;;;;;;;12.25;11.85;;;21.70;99.90;;;;;;5053335;28;20216;-64
2023/08/27 09:19:09;;;;;;;12.65;12.25;;;21.70;99.90;;;;;;5052369;28;20284;-64
2023/08/27 09:21:36;;;;;;;12.15;11.75;;;21.70;99.90;;;;;;5053319;28;20574;-64
2023/08/27 09:24:03;;;;;;;12.38;11.98;;;21.90;99.90;;;;;;5053270;28;20242;-63
2023/08/27 09:26:30;;;;;;;12.80;12.40;;;22.00;99.90;;;;;;5053097;28;20218;-65
2023/08/27 09:28:59;;;;;;;13.60;13.13;;;22.10;99.90;;;;;;5053520;28;20212;-65
2023/08/27 09:31:39;;;;;;;14.88;14.38;;;22.30;99.90;;;;;;5052507;28;20215;-65
2023/08/27 09:34:06;;;;;;;14.00;13.50;;;22.40;99.90;;;;;;5053234;28;20204;-64
2023/08/27 09:36:38;;;;;;;15.50;15.00;;;22.50;99.90;;;;;;5053039;28;20208;-66
2023/08/27 09:39:11;;;;;;;15.07;14.57;;;22.50;99.90;;;;;;5052015;28;20227;-62
2023/08/27 09:41:39;;;;;;;15.05;14.55;;;22.60;99.90;;;;;;5053446;28;20300;-66
2023/08/27 09:44:07;;;;;;;15.43;14.93;;;22.70;99.90;;;;;;5052910;28;20239;-65
2023/08/27 09:46:34;;;;;;;15.85;15.35;;;22.60;99.90;;;;;;5053037;28;20200;-65
2023/08/27 09:49:04;;;;;;;15.27;14.75;;;22.60;99.90;;;;;;5052755;28;20215;-64
2023/08/27 09:51:33;;;;;;;15.68;15.18;;;22.60;99.90;;;;;;5052686;28;20208;-62
2023/08/27 09:54:00;;;;;;;14.45;13.95;;;22.70;99.90;;;;;;5052217;28;20208;-65
2023/08/27 09:56:29;;;;;;;15.40;14.90;;;22.70;99.90;;;;;;5052611;28;20208;-65
2023/08/27 09:58:57;;;;;;;14.40;13.90;;;22.70;99.90;;;;;;5058922;28;20223;-64
2023/08/27 10:01:25;;;;;;;15.00;14.50;;;22.70;99.90;;;;;;5052012;28;20204;-64
2023/08/27 10:03:53;;;;;;;14.65;14.15;;;22.60;99.90;;;;;;5051660;28;20214;-65
2023/08/27 10:06:20;;;;;;;14.32;13.82;;;22.70;99.90;;;;;;5053076;28;20204;-64
2023/08/27 10:08:50;;;;;;;14.52;14.02;;;22.90;99.90;;;;;;5053855;28;20227;-64
2023/08/27 10:11:17;;;;;;;14.38;13.88;;;22.90;99.90;;;;;;5051047;28;20261;-64
2023/08/27 10:13:45;;;;;;;14.48;13.98;;;23.10;99.90;;;;;;5054058;28;20219;-64
2023/08/27 10:16:13;;;;;;;14.50;14.00;;;23.10;99.90;;;;;;5053155;28;20266;-63
2023/08/27 10:18:40;;;;;;;14.68;14.18;;;23.20;99.90;;;;;;5050810;28;20231;-65
2023/08/27 10:21:08;;;;;;;14.63;14.13;;;23.30;99.90;;;;;;5050348;28;20204;-64
2023/08/27 10:23:38;;;;;;;14.20;13.70;;;23.50;99.90;;;;;;5050788;28;20204;-63
2023/08/27 10:26:07;;;;;;;13.38;12.98;;;23.50;99.90;;;;;;5050834;28;20237;-64
2023/08/27 10:28:35;;;;;;;13.48;12.98;;;23.50;99.90;;;;;;5051003;28;20559;-64
2023/08/27 10:31:02;;;;;;;13.65;13.15;;;23.60;99.90;;;;;;5051281;28;20204;-66
2023/08/27 10:33:29;;;;;;;15.00;14.50;;;23.60;99.90;;;;;;5051462;28;20753;-62
2023/08/27 10:35:58;;;;;;;14.65;14.15;;;23.50;99.90;;;;;;5051842;28;20306;-64
2023/08/27 10:38:27;;;;;;;13.98;13.48;;;23.60;99.90;;;;;;5048368;28;20698;-64
2023/08/27 10:40:54;;;;;;;13.85;13.35;;;23.60;99.90;;;;;;5048671;28;20210;-66
2023/08/27 10:43:22;;;;;;;13.80;13.30;;;23.60;99.90;;;;;;5050079;28;20235;-66
2023/08/27 10:45:49;;;;;;;14.77;14.27;;;23.60;99.90;;;;;;5046207;28;20251;-65
2023/08/27 10:48:24;;;;;;;13.23;12.80;;;23.50;99.90;;;;;;5049812;28;20606;-63
2023/08/27 10:50:55;;;;;;;15.10;14.60;;;23.60;99.90;;;;;;5049303;28;20235;-64
2023/08/27 10:53:22;;;;;;;16.20;15.60;;;23.60;99.90;;;;;;5050094;28;20196;-64
2023/08/27 10:55:51;;;;;;;15.07;14.57;;;23.60;99.90;;;;;;5050071;28;20200;-64
2023/08/27 10:58:20;;;;;;;15.18;14.68;;;23.60;99.90;;;;;;5047994;28;20227;-64
2023/08/27 11:01:04;;;;;;;14.20;13.70;;;23.50;99.90;;;;;;5039108;28;20253;-63
2023/08/27 11:03:57;;;;;;;15.80;15.25;;;23.60;99.90;;;;;;5039788;28;20201;-63
2023/08/27 11:06:48;;;;;;;15.67;15.17;;;23.70;99.90;;;;;;5037264;28;20243;-61
2023/08/27 11:09:18;;;;;;;18.95;18.25;;;23.70;99.90;;;;;;5026508;28;20283;-65
2023/08/27 11:11:48;;;;;;;13.13;12.73;;;23.90;99.90;;;;;;5042777;28;20206;-64
2023/08/27 11:14:16;;;;;;;17.00;16.40;;;24.10;99.90;;;;;;5043715;28;20189;-66
2023/08/27 11:16:49;;;;;;;16.45;15.85;;;24.10;99.90;;;;;;5038910;28;20292;-64
2023/08/27 11:19:26;;;;;;;16.38;15.75;;;24.00;99.90;;;;;;5041080;28;20788;-64
2023/08/27 11:21:52;;;;;;;16.73;16.13;;;24.00;99.90;;;;;;5035827;28;20204;-66
2023/08/27 11:24:23;;;;;;;16.27;15.68;;;24.00;99.90;;;;;;5046613;28;20200;-67
2023/08/27 11:26:51;;;;;;;19.60;18.83;;;23.90;99.90;;;;;;5049817;28;20220;-64
2023/08/27 11:29:18;;;;;;;16.53;15.93;;;23.70;99.90;;;;;;5048407;28;20219;-65
2023/08/27 11:31:47;;;;;;;15.27;14.77;;;23.70;99.90;;;;;;5048821;28;20210;-64
2023/08/27 11:34:15;;;;;;;16.35;15.75;;;23.50;99.90;;;;;;5049841;28;20207;-64
2023/08/27 11:36:43;;;;;;;16.58;15.98;;;23.60;99.90;;;;;;5043013;28;20201;-64
2023/08/27 11:39:11;;;;;;;16.33;15.73;;;23.80;99.90;;;;;;5035831;28;20211;-67
2023/08/27 11:41:39;;;;;;;17.00;16.40;;;23.90;99.90;;;;;;5040981;28;20211;-64
2023/08/27 11:44:10;;;;;;;17.00;16.40;;;23.80;99.90;;;;;;5035714;28;20238;-67
2023/08/27 11:46:37;;;;;;;20.33;19.52;;;23.80;99.90;;;;;;5030596;28;20229;-71
2023/08/27 11:49:07;;;;;;;15.25;14.65;;;23.70;99.90;;;;;;5031225;28;20663;-66
2023/08/27 11:51:35;;;;;;;16.33;15.73;;;23.50;99.90;;;;;;5049972;28;20954;-66
2023/08/27 11:54:07;;;;;;;14.00;13.50;;;23.20;99.90;;;;;;5059691;28;20280;-66
2023/08/27 11:56:36;;;;;;;14.18;13.68;;;23.10;99.90;;;;;;5049985;28;20193;-64
2023/08/27 11:59:04;;;;;;;18.20;17.60;;;23.00;99.90;;;;;;5060456;28;20271;-63
2023/08/27 12:01:31;;;;;;;17.73;17.02;;;22.90;99.90;;;;;;5055521;28;20197;-65
2023/08/27 12:03:58;;;;;;;19.27;18.58;;;22.60;99.90;;;;;;5043568;28;20203;-64
2023/08/27 12:06:28;;;;;;;16.10;15.50;;;22.50;99.90;;;;;;5040933;28;20243;-66
2023/08/27 12:08:56;;;;;;;33.45;31.77;;;22.50;99.90;;;;;;5040322;28;20209;-65
2023/08/27 12:11:26;;;;;;;27.73;26.25;;;22.40;99.90;;;;;;5043267;28;20208;-64
2023/08/27 12:13:56;;;;;;;14.95;14.45;;;21.90;99.90;;;;;;5048878;28;20200;-64
2023/08/27 12:16:29;;;;;;;13.15;12.75;;;21.50;99.90;;;;;;5046565;28;20202;-64
2023/08/27 12:19:08;;;;;;;13.38;12.95;;;21.10;99.90;;;;;;5050173;28;20192;-63
2023/08/27 12:21:48;;;;;;;20.67;19.80;;;20.80;99.90;;;;;;5049509;28;20203;-64
2023/08/27 12:24:30;;;;;;;16.65;16.05;;;20.40;99.90;;;;;;5044007;28;20200;-67
2023/08/27 12:26:57;;;;;;;47.40;44.57;;;20.20;99.90;;;;;;5044598;28;20223;-64
2023/08/27 12:29:29;;;;;;;43.88;41.53;;;20.20;99.90;;;;;;5040483;28;20200;-63
2023/08/27 12:31:56;;;;;;;15.27;14.75;;;19.90;99.90;;;;;;5041271;28;20881;-65